sensor_id;sensor_type;location;lat;lon;timestamp;P1;durP1;ratioP1;P2;durP2;ratioP2
2157;SDS011;41972;48.774;9.282;2024-03-02T00:00:00;24.95;;;22.60;;
2157;SDS011;41972;48.774;9.282;2024-03-02T07:44:22;33.90;;;31.40;;
2157;SDS011;41972;48.774;9.282;2024-03-02T07:46:48;28.00;;;25.80;;
2157;SDS011;41972;48.774;9.282;2024-03-02T07:49:17;34.00;;;31.70;;
2157;SDS011;41972;48.774;9.282;2024-03-02T07:54:09;32.27;;;30.10;;
2157;SDS011;41972;48.774;9.282;2024-03-02T07:56:35;22.30;;;20.40;;
2157;SDS011;41972;48.774;9.282;2024-03-02T07:59:01;22.17;;;20.37;;
2157;SDS011;41972;48.774;9.282;2024-03-02T08:01:27;22.90;;;21.10;;
2157;SDS011;41972;48.774;9.282;2024-03-02T08:03:55;23.63;;;21.63;;
2157;SDS011;41972;48.774;9.282;2024-03-02T08:06:23;24.90;;;22.90;;
2157;SDS011;41972;48.774;9.282;2024-03-02T08:08:52;33.60;;;31.40;;
2157;SDS011;41972;48.774;9.282;2024-03-02T08:11:24;26.80;;;25.00;;
2157;SDS011;41972;48.774;9.282;2024-03-02T08:13:50;25.90;;;24.00;;
2157;SDS011;41972;48.774;9.282;2024-03-02T08:26:03;28.90;;;27.10;;
2157;SDS011;41972;48.774;9.282;2024-03-02T08:28:29;30.20;;;28.40;;
2157;SDS011;41972;48.774;9.282;2024-03-02T08:30:54;21.80;;;20.30;;
2157;SDS011;41972;48.774;9.282;2024-03-02T08:33:21;21.55;;;20.15;;
2157;SDS011;41972;48.774;9.282;2024-03-02T08:38:12;24.53;;;23.13;;
2157;SDS011;41972;48.774;9.282;2024-03-02T08:40:37;21.43;;;19.93;;
2157;SDS011;41972;48.774;9.282;2024-03-02T08:43:04;21.65;;;20.30;;
2157;SDS011;41972;48.774;9.282;2024-03-02T08:45:30;23.43;;;22.13;;
2157;SDS011;41972;48.774;9.282;2024-03-02T08:47:55;30.15;;;28.40;;
2157;SDS011;41972;48.774;9.282;2024-03-02T08:50:21;30.03;;;28.43;;
2157;SDS011;41972;48.774;9.282;2024-03-02T08:52:46;28.77;;;27.27;;
2157;SDS011;41972;48.774;9.282;2024-03-02T08:55:13;19.10;;;17.90;;
2157;SDS011;41972;48.774;9.282;2024-03-02T08:57:39;20.90;;;19.63;;
2157;SDS011;41972;48.774;9.282;2024-03-02T09:00:06;14.45;;;13.45;;
2157;SDS011;41972;48.774;9.282;2024-03-02T09:02:33;13.90;;;13.10;;
2157;SDS011;41972;48.774;9.282;2024-03-02T09:04:59;15.50;;;14.30;;
2157;SDS011;41972;48.774;9.282;2024-03-02T09:07:24;11.70;;;10.90;;
2157;SDS011;41972;48.774;9.282;2024-03-02T09:09:50;12.83;;;12.07;;
2157;SDS011;41972;48.774;9.282;2024-03-02T09:12:15;15.97;;;14.97;;
2157;SDS011;41972;48.774;9.282;2024-03-02T09:14:41;8.43;;;7.83;;
2157;SDS011;41972;48.774;9.282;2024-03-02T09:17:07;9.37;;;8.70;;
2157;SDS011;41972;48.774;9.282;2024-03-02T09:19:34;10.07;;;9.37;;
2157;SDS011;41972;48.774;9.282;2024-03-02T09:22:00;9.63;;;8.93;;
2157;SDS011;41972;48.774;9.282;2024-03-02T09:24:28;10.73;;;9.93;;
2157;SDS011;41972;48.774;9.282;2024-03-02T09:26:53;11.93;;;11.03;;
2157;SDS011;41972;48.774;9.282;2024-03-02T09:29:19;14.77;;;13.80;;
2157;SDS011;41972;48.774;9.282;2024-03-02T09:31:45;29.73;;;28.33;;
2157;SDS011;41972;48.774;9.282;2024-03-02T09:34:11;34.23;;;32.73;;
2157;SDS011;41972;48.774;9.282;2024-03-02T09:36:39;17.93;;;16.93;;
2157;SDS011;41972;48.774;9.282;2024-03-02T09:39:04;11.10;;;10.30;;
2157;SDS011;41972;48.774;9.282;2024-03-02T09:41:32;10.67;;;10.00;;
2157;SDS011;41972;48.774;9.282;2024-03-02T09:43:59;8.73;;;8.13;;
2157;SDS011;41972;48.774;9.282;2024-03-02T09:46:29;10.53;;;9.63;;
2157;SDS011;41972;48.774;9.282;2024-03-02T09:48:56;9.83;;;9.03;;
2157;SDS011;41972;48.774;9.282;2024-03-02T09:51:22;10.37;;;9.17;;
2157;SDS011;41972;48.774;9.282;2024-03-02T09:53:48;11.53;;;10.80;;
2157;SDS011;41972;48.774;9.282;2024-03-02T09:56:14;9.33;;;8.73;;
2157;SDS011;41972;48.774;9.282;2024-03-02T09:58:43;10.17;;;9.60;;
2157;SDS011;41972;48.774;9.282;2024-03-02T10:01:09;9.53;;;8.93;;
2157;SDS011;41972;48.774;9.282;2024-03-02T10:03:35;9.03;;;8.43;;
2157;SDS011;41972;48.774;9.282;2024-03-02T10:08:47;6.70;;;6.30;;
2157;SDS011;41972;48.774;9.282;2024-03-02T10:11:31;8.93;;;8.23;;
2157;SDS011;41972;48.774;9.282;2024-03-02T10:14:04;7.63;;;7.13;;
2157;SDS011;41972;48.774;9.282;2024-03-02T10:16:38;7.60;;;7.10;;
2157;SDS011;41972;48.774;9.282;2024-03-02T10:21:55;7.70;;;7.30;;
2157;SDS011;41972;48.774;9.282;2024-03-02T10:24:23;7.80;;;7.20;;
2157;SDS011;41972;48.774;9.282;2024-03-02T10:26:49;10.70;;;10.10;;
2157;SDS011;41972;48.774;9.282;2024-03-02T10:29:15;9.70;;;9.20;;
2157;SDS011;41972;48.774;9.282;2024-03-02T10:31:41;10.00;;;9.50;;
2157;SDS011;41972;48.774;9.282;2024-03-02T10:34:09;10.73;;;10.13;;
2157;SDS011;41972;48.774;9.282;2024-03-02T10:36:36;10.80;;;10.20;;
2157;SDS011;41972;48.774;9.282;2024-03-02T10:39:03;9.43;;;8.83;;
2157;SDS011;41972;48.774;9.282;2024-03-02T10:41:33;13.90;;;13.10;;
2157;SDS011;41972;48.774;9.282;2024-03-02T10:44:01;13.63;;;12.73;;
2157;SDS011;41972;48.774;9.282;2024-03-02T10:46:29;8.50;;;7.90;;
2157;SDS011;41972;48.774;9.282;2024-03-02T10:48:56;13.50;;;12.77;;
2157;SDS011;41972;48.774;9.282;2024-03-02T10:51:24;11.10;;;10.40;;
2157;SDS011;41972;48.774;9.282;2024-03-02T10:53:51;7.70;;;7.20;;
2157;SDS011;41972;48.774;9.282;2024-03-02T10:56:19;10.20;;;9.60;;
2157;SDS011;41972;48.774;9.282;2024-03-02T10:58:52;9.00;;;8.40;;
2157;SDS011;41972;48.774;9.282;2024-03-02T11:01:37;9.60;;;8.80;;
2157;SDS011;41972;48.774;9.282;2024-03-02T11:04:04;12.10;;;11.57;;
2157;SDS011;41972;48.774;9.282;2024-03-02T11:06:33;8.40;;;7.80;;
2157;SDS011;41972;48.774;9.282;2024-03-02T11:09:03;12.33;;;11.73;;
2157;SDS011;41972;48.774;9.282;2024-03-02T11:11:37;6.50;;;6.00;;
2157;SDS011;41972;48.774;9.282;2024-03-02T11:14:07;8.50;;;7.90;;
2157;SDS011;41972;48.774;9.282;2024-03-02T11:16:41;8.93;;;8.50;;
2157;SDS011;41972;48.774;9.282;2024-03-02T11:19:10;13.63;;;13.03;;
2157;SDS011;41972;48.774;9.282;2024-03-02T11:21:38;9.70;;;9.10;;
2157;SDS011;41972;48.774;9.282;2024-03-02T11:26:49;13.70;;;13.10;;
2157;SDS011;41972;48.774;9.282;2024-03-02T11:32:21;15.10;;;14.30;;
2157;SDS011;41972;48.774;9.282;2024-03-02T11:34:48;8.70;;;8.20;;
2157;SDS011;41972;48.774;9.282;2024-03-02T11:37:15;7.37;;;7.00;;
2157;SDS011;41972;48.774;9.282;2024-03-02T11:39:43;8.40;;;7.90;;
2157;SDS011;41972;48.774;9.282;2024-03-02T11:42:10;5.10;;;4.70;;
2157;SDS011;41972;48.774;9.282;2024-03-02T11:44:37;4.60;;;4.20;;
2157;SDS011;41972;48.774;9.282;2024-03-02T11:47:07;4.17;;;3.97;;
2157;SDS011;41972;48.774;9.282;2024-03-02T11:52:06;5.10;;;4.80;;
2157;SDS011;41972;48.774;9.282;2024-03-02T11:54:34;5.03;;;4.73;;
2157;SDS011;41972;48.774;9.282;2024-03-02T11:57:02;4.80;;;4.57;;
2157;SDS011;41972;48.774;9.282;2024-03-02T11:59:28;4.03;;;3.83;;
2157;SDS011;41972;48.774;9.282;2024-03-02T12:01:58;2.10;;;2.00;;
2157;SDS011;41972;48.774;9.282;2024-03-02T12:04:25;10.63;;;10.17;;
2157;SDS011;41972;48.774;9.282;2024-03-02T12:07:00;9.70;;;9.40;;
2157;SDS011;41972;48.774;9.282;2024-03-02T12:09:27;8.63;;;8.30;;
2157;SDS011;41972;48.774;9.282;2024-03-02T12:14:29;9.37;;;8.97;;
2157;SDS011;41972;48.774;9.282;2024-03-02T12:16:55;10.27;;;9.87;;
2157;SDS011;41972;48.774;9.282;2024-03-02T12:19:23;7.40;;;7.10;;
2157;SDS011;41972;48.774;9.282;2024-03-02T12:21:49;5.25;;;5.05;;
2157;SDS011;41972;48.774;9.282;2024-03-02T12:24:15;3.17;;;2.97;;
2157;SDS011;41972;48.774;9.282;2024-03-02T12:26:40;4.40;;;4.20;;
2157;SDS011;41972;48.774;9.282;2024-03-02T12:29:06;3.43;;;3.23;;
2157;SDS011;41972;48.774;9.282;2024-03-02T12:31:32;4.00;;;3.80;;
2157;SDS011;41972;48.774;9.282;2024-03-02T12:33:57;2.43;;;2.33;;
2157;SDS011;41972;48.774;9.282;2024-03-02T12:36:24;3.10;;;2.90;;
2157;SDS011;41972;48.774;9.282;2024-03-02T12:38:52;2.90;;;2.70;;
2157;SDS011;41972;48.774;9.282;2024-03-02T12:41:19;5.13;;;4.93;;
2157;SDS011;41972;48.774;9.282;2024-03-02T12:43:45;3.57;;;3.37;;
2157;SDS011;41972;48.774;9.282;2024-03-02T12:46:11;2.90;;;2.70;;
2157;SDS011;41972;48.774;9.282;2024-03-02T12:48:36;3.73;;;3.53;;
2157;SDS011;41972;48.774;9.282;2024-03-02T12:51:05;6.50;;;6.20;;
2157;SDS011;41972;48.774;9.282;2024-03-02T12:53:31;5.10;;;4.90;;
2157;SDS011;41972;48.774;9.282;2024-03-02T12:55:57;6.13;;;5.90;;
2157;SDS011;41972;48.774;9.282;2024-03-02T12:58:23;4.50;;;4.30;;
2157;SDS011;41972;48.774;9.282;2024-03-02T13:00:48;4.70;;;4.30;;
2157;SDS011;41972;48.774;9.282;2024-03-02T13:03:14;8.53;;;8.23;;
2157;SDS011;41972;48.774;9.282;2024-03-02T13:05:47;5.53;;;5.33;;
2157;SDS011;41972;48.774;9.282;2024-03-02T13:08:14;4.53;;;4.33;;
2157;SDS011;41972;48.774;9.282;2024-03-02T13:10:40;6.13;;;5.80;;
2157;SDS011;41972;48.774;9.282;2024-03-02T13:13:06;4.17;;;3.97;;
2157;SDS011;41972;48.774;9.282;2024-03-02T13:15:32;6.50;;;6.10;;
2157;SDS011;41972;48.774;9.282;2024-03-02T13:17:58;2.83;;;2.63;;
2157;SDS011;41972;48.774;9.282;2024-03-02T13:20:29;3.30;;;3.20;;
2157;SDS011;41972;48.774;9.282;2024-03-02T13:22:56;5.37;;;5.17;;
2157;SDS011;41972;48.774;9.282;2024-03-02T13:25:22;3.73;;;3.53;;
2157;SDS011;41972;48.774;9.282;2024-03-02T13:27:49;5.30;;;5.10;;
2157;SDS011;41972;48.774;9.282;2024-03-02T13:30:14;4.20;;;3.93;;
2157;SDS011;41972;48.774;9.282;2024-03-02T13:32:40;6.83;;;6.43;;
2157;SDS011;41972;48.774;9.282;2024-03-02T13:35:05;4.57;;;4.27;;
2157;SDS011;41972;48.774;9.282;2024-03-02T13:37:31;3.83;;;3.63;;
2157;SDS011;41972;48.774;9.282;2024-03-02T13:39:57;2.60;;;2.40;;
2157;SDS011;41972;48.774;9.282;2024-03-02T13:42:22;3.80;;;3.60;;
2157;SDS011;41972;48.774;9.282;2024-03-02T13:44:48;4.40;;;4.00;;
2157;SDS011;41972;48.774;9.282;2024-03-02T13:47:16;5.53;;;5.30;;
2157;SDS011;41972;48.774;9.282;2024-03-02T13:49:41;3.67;;;3.47;;
2157;SDS011;41972;48.774;9.282;2024-03-02T13:52:11;3.87;;;3.67;;
2157;SDS011;41972;48.774;9.282;2024-03-02T13:54:41;4.53;;;4.33;;
2157;SDS011;41972;48.774;9.282;2024-03-02T13:57:09;2.43;;;2.33;;
2157;SDS011;41972;48.774;9.282;2024-03-02T13:59:35;3.10;;;2.90;;
2157;SDS011;41972;48.774;9.282;2024-03-02T14:02:02;3.07;;;2.83;;
2157;SDS011;41972;48.774;9.282;2024-03-02T14:04:31;4.03;;;3.83;;
2157;SDS011;41972;48.774;9.282;2024-03-02T14:06:58;11.30;;;10.30;;
2157;SDS011;41972;48.774;9.282;2024-03-02T14:09:24;5.90;;;3.90;;
2157;SDS011;41972;48.774;9.282;2024-03-02T14:11:50;3.70;;;3.50;;
2157;SDS011;41972;48.774;9.282;2024-03-02T14:14:17;3.00;;;2.80;;
2157;SDS011;41972;48.774;9.282;2024-03-02T14:16:43;4.20;;;3.90;;
2157;SDS011;41972;48.774;9.282;2024-03-02T14:19:09;7.60;;;7.30;;
2157;SDS011;41972;48.774;9.282;2024-03-02T14:21:35;5.73;;;5.53;;
2157;SDS011;41972;48.774;9.282;2024-03-02T14:24:01;4.70;;;4.50;;
2157;SDS011;41972;48.774;9.282;2024-03-02T14:26:26;7.03;;;6.73;;
2157;SDS011;41972;48.774;9.282;2024-03-02T14:28:53;9.40;;;9.10;;
2157;SDS011;41972;48.774;9.282;2024-03-02T14:31:19;3.30;;;3.20;;
2157;SDS011;41972;48.774;9.282;2024-03-02T14:33:45;4.23;;;4.03;;
2157;SDS011;41972;48.774;9.282;2024-03-02T14:36:11;10.70;;;10.30;;
2157;SDS011;41972;48.774;9.282;2024-03-02T14:38:37;9.73;;;9.43;;
2157;SDS011;41972;48.774;9.282;2024-03-02T14:41:03;11.13;;;10.63;;
2157;SDS011;41972;48.774;9.282;2024-03-02T14:43:29;15.83;;;15.33;;
2157;SDS011;41972;48.774;9.282;2024-03-02T14:45:55;10.07;;;9.67;;
2157;SDS011;41972;48.774;9.282;2024-03-02T14:48:21;7.07;;;6.87;;
2157;SDS011;41972;48.774;9.282;2024-03-02T14:50:47;10.37;;;10.00;;
2157;SDS011;41972;48.774;9.282;2024-03-02T14:53:13;11.73;;;11.23;;
2157;SDS011;41972;48.774;9.282;2024-03-02T14:55:39;9.83;;;9.43;;
2157;SDS011;41972;48.774;9.282;2024-03-02T14:58:04;9.93;;;9.53;;
2157;SDS011;41972;48.774;9.282;2024-03-02T15:00:30;14.73;;;14.23;;
2157;SDS011;41972;48.774;9.282;2024-03-02T15:02:55;10.40;;;9.90;;
2157;SDS011;41972;48.774;9.282;2024-03-02T15:05:21;9.63;;;9.33;;
2157;SDS011;41972;48.774;9.282;2024-03-02T15:07:47;9.10;;;8.80;;
2157;SDS011;41972;48.774;9.282;2024-03-02T15:10:13;3.53;;;3.23;;
2157;SDS011;41972;48.774;9.282;2024-03-02T15:12:39;2.13;;;2.03;;
2157;SDS011;41972;48.774;9.282;2024-03-02T15:15:05;2.93;;;2.73;;
2157;SDS011;41972;48.774;9.282;2024-03-02T15:17:31;3.50;;;3.20;;
2157;SDS011;41972;48.774;9.282;2024-03-02T15:19:57;5.20;;;4.70;;
2157;SDS011;41972;48.774;9.282;2024-03-02T15:22:22;4.77;;;4.47;;
2157;SDS011;41972;48.774;9.282;2024-03-02T15:24:49;6.77;;;6.37;;
2157;SDS011;41972;48.774;9.282;2024-03-02T15:27:22;2.20;;;2.10;;
2157;SDS011;41972;48.774;9.282;2024-03-02T15:29:47;1.70;;;1.60;;
2157;SDS011;41972;48.774;9.282;2024-03-02T15:32:17;3.90;;;3.70;;
2157;SDS011;41972;48.774;9.282;2024-03-02T15:34:43;7.83;;;7.40;;
2157;SDS011;41972;48.774;9.282;2024-03-02T15:37:09;4.10;;;3.90;;
2157;SDS011;41972;48.774;9.282;2024-03-02T15:39:34;4.53;;;4.23;;
2157;SDS011;41972;48.774;9.282;2024-03-02T15:42:00;2.57;;;2.37;;
2157;SDS011;41972;48.774;9.282;2024-03-02T15:44:26;3.07;;;2.77;;
2157;SDS011;41972;48.774;9.282;2024-03-02T15:46:52;5.90;;;5.50;;
2157;SDS011;41972;48.774;9.282;2024-03-02T15:49:18;5.90;;;5.50;;
2157;SDS011;41972;48.774;9.282;2024-03-02T15:51:44;4.00;;;3.80;;
2157;SDS011;41972;48.774;9.282;2024-03-02T15:54:10;3.30;;;3.00;;
2157;SDS011;41972;48.774;9.282;2024-03-02T15:56:36;4.60;;;4.40;;
2157;SDS011;41972;48.774;9.282;2024-03-02T15:59:02;3.67;;;3.47;;
2157;SDS011;41972;48.774;9.282;2024-03-02T16:01:30;2.77;;;2.57;;
2157;SDS011;41972;48.774;9.282;2024-03-02T16:03:57;4.70;;;4.40;;
2157;SDS011;41972;48.774;9.282;2024-03-02T16:06:24;5.63;;;5.23;;
2157;SDS011;41972;48.774;9.282;2024-03-02T16:08:51;5.03;;;4.73;;
2157;SDS011;41972;48.774;9.282;2024-03-02T16:11:18;4.75;;;4.55;;
2157;SDS011;41972;48.774;9.282;2024-03-02T16:13:43;11.35;;;10.85;;
2157;SDS011;41972;48.774;9.282;2024-03-02T16:16:10;12.67;;;12.17;;
2157;SDS011;41972;48.774;9.282;2024-03-02T16:18:36;7.33;;;6.93;;
2157;SDS011;41972;48.774;9.282;2024-03-02T16:21:03;9.03;;;8.37;;
2157;SDS011;41972;48.774;9.282;2024-03-02T16:23:29;12.43;;;11.80;;
2157;SDS011;41972;48.774;9.282;2024-03-02T16:25:55;19.20;;;18.50;;
2157;SDS011;41972;48.774;9.282;2024-03-02T16:28:20;10.20;;;9.67;;
2157;SDS011;41972;48.774;9.282;2024-03-02T16:30:46;13.93;;;13.03;;
2157;SDS011;41972;48.774;9.282;2024-03-02T16:33:12;15.93;;;15.23;;
2157;SDS011;41972;48.774;9.282;2024-03-02T16:35:37;14.17;;;13.57;;
2157;SDS011;41972;48.774;9.282;2024-03-02T16:38:03;18.85;;;18.05;;
2157;SDS011;41972;48.774;9.282;2024-03-02T16:40:29;17.07;;;16.40;;
2157;SDS011;41972;48.774;9.282;2024-03-02T16:42:56;21.93;;;21.03;;
2157;SDS011;41972;48.774;9.282;2024-03-02T16:45:22;20.57;;;19.77;;
2157;SDS011;41972;48.774;9.282;2024-03-02T16:47:47;19.57;;;18.77;;
2157;SDS011;41972;48.774;9.282;2024-03-02T16:50:13;17.77;;;17.07;;
2157;SDS011;41972;48.774;9.282;2024-03-02T16:52:41;18.73;;;18.07;;
2157;SDS011;41972;48.774;9.282;2024-03-02T16:55:07;8.67;;;8.17;;
2157;SDS011;41972;48.774;9.282;2024-03-02T16:57:33;14.87;;;14.07;;
2157;SDS011;41972;48.774;9.282;2024-03-02T16:59:59;15.57;;;14.67;;
2157;SDS011;41972;48.774;9.282;2024-03-02T17:02:24;5.20;;;4.83;;
2157;SDS011;41972;48.774;9.282;2024-03-02T17:04:50;9.10;;;8.50;;
2157;SDS011;41972;48.774;9.282;2024-03-02T17:07:16;9.43;;;8.80;;
2157;SDS011;41972;48.774;9.282;2024-03-02T17:09:43;9.30;;;8.70;;
2157;SDS011;41972;48.774;9.282;2024-03-02T17:12:09;9.83;;;9.33;;
2157;SDS011;41972;48.774;9.282;2024-03-02T17:14:35;10.90;;;10.40;;
2157;SDS011;41972;48.774;9.282;2024-03-02T17:17:01;8.00;;;7.60;;
2157;SDS011;41972;48.774;9.282;2024-03-02T17:19:26;10.43;;;9.63;;
2157;SDS011;41972;48.774;9.282;2024-03-02T17:21:53;10.07;;;9.37;;
2157;SDS011;41972;48.774;9.282;2024-03-02T17:24:18;11.80;;;11.00;;
2157;SDS011;41972;48.774;9.282;2024-03-02T17:26:44;9.57;;;8.77;;
2157;SDS011;41972;48.774;9.282;2024-03-02T17:29:10;10.47;;;9.77;;
2157;SDS011;41972;48.774;9.282;2024-03-02T17:31:35;12.40;;;11.50;;
2157;SDS011;41972;48.774;9.282;2024-03-02T17:34:01;11.40;;;10.50;;
2157;SDS011;41972;48.774;9.282;2024-03-02T17:36:26;21.33;;;20.23;;
2157;SDS011;41972;48.774;9.282;2024-03-02T17:38:52;12.07;;;11.27;;
2157;SDS011;41972;48.774;9.282;2024-03-02T17:41:17;10.50;;;9.47;;
2157;SDS011;41972;48.774;9.282;2024-03-02T17:43:44;13.87;;;12.80;;
2157;SDS011;41972;48.774;9.282;2024-03-02T17:46:09;13.90;;;12.70;;
2157;SDS011;41972;48.774;9.282;2024-03-02T17:48:35;15.50;;;14.50;;
2157;SDS011;41972;48.774;9.282;2024-03-02T17:51:01;18.90;;;17.37;;
2157;SDS011;41972;48.774;9.282;2024-03-02T17:53:26;14.90;;;13.80;;
2157;SDS011;41972;48.774;9.282;2024-03-02T17:55:52;15.33;;;14.10;;
2157;SDS011;41972;48.774;9.282;2024-03-02T17:58:17;17.87;;;16.60;;
2157;SDS011;41972;48.774;9.282;2024-03-02T18:00:43;17.95;;;16.75;;
2157;SDS011;41972;48.774;9.282;2024-03-02T18:03:09;20.10;;;18.80;;
2157;SDS011;41972;48.774;9.282;2024-03-02T18:05:35;19.27;;;17.80;;
2157;SDS011;41972;48.774;9.282;2024-03-02T18:08:01;17.23;;;15.87;;
2157;SDS011;41972;48.774;9.282;2024-03-02T18:10:27;14.40;;;12.90;;
2157;SDS011;41972;48.774;9.282;2024-03-02T18:12:54;16.30;;;14.90;;
2157;SDS011;41972;48.774;9.282;2024-03-02T18:15:20;16.00;;;14.60;;
2157;SDS011;41972;48.774;9.282;2024-03-02T18:17:45;13.60;;;12.40;;
2157;SDS011;41972;48.774;9.282;2024-03-02T18:20:11;15.53;;;14.20;;
2157;SDS011;41972;48.774;9.282;2024-03-02T18:22:37;15.43;;;13.97;;
2157;SDS011;41972;48.774;9.282;2024-03-02T18:25:03;16.43;;;14.70;;
2157;SDS011;41972;48.774;9.282;2024-03-02T18:27:29;18.27;;;16.50;;
2157;SDS011;41972;48.774;9.282;2024-03-02T18:29:54;23.57;;;21.77;;
2157;SDS011;41972;48.774;9.282;2024-03-02T18:32:20;23.40;;;21.50;;
2157;SDS011;41972;48.774;9.282;2024-03-02T18:34:46;25.63;;;23.80;;
2157;SDS011;41972;48.774;9.282;2024-03-02T18:37:12;21.50;;;19.90;;
2157;SDS011;41972;48.774;9.282;2024-03-02T18:39:39;24.55;;;22.65;;
2157;SDS011;41972;48.774;9.282;2024-03-02T18:42:05;24.27;;;22.40;;
2157;SDS011;41972;48.774;9.282;2024-03-02T18:44:31;24.37;;;22.47;;
2157;SDS011;41972;48.774;9.282;2024-03-02T18:46:56;26.40;;;24.43;;
2157;SDS011;41972;48.774;9.282;2024-03-02T18:49:22;30.07;;;27.77;;
2157;SDS011;41972;48.774;9.282;2024-03-02T18:51:48;26.10;;;24.10;;
2157;SDS011;41972;48.774;9.282;2024-03-02T18:54:14;20.90;;;19.00;;
2157;SDS011;41972;48.774;9.282;2024-03-02T18:56:41;24.37;;;22.37;;
2157;SDS011;41972;48.774;9.282;2024-03-02T18:59:06;23.05;;;20.90;;
2157;SDS011;41972;48.774;9.282;2024-03-02T19:01:32;23.65;;;21.50;;
2157;SDS011;41972;48.774;9.282;2024-03-02T19:03:58;24.80;;;22.60;;
2157;SDS011;41972;48.774;9.282;2024-03-02T19:06:23;27.77;;;25.67;;
2157;SDS011;41972;48.774;9.282;2024-03-02T19:08:49;23.10;;;20.90;;
2157;SDS011;41972;48.774;9.282;2024-03-02T19:11:15;23.40;;;21.15;;
2157;SDS011;41972;48.774;9.282;2024-03-02T19:13:41;25.60;;;23.10;;
2157;SDS011;41972;48.774;9.282;2024-03-02T19:16:10;20.40;;;18.50;;
2157;SDS011;41972;48.774;9.282;2024-03-02T19:18:37;21.75;;;19.85;;
2157;SDS011;41972;48.774;9.282;2024-03-02T19:21:04;22.00;;;19.90;;
2157;SDS011;41972;48.774;9.282;2024-03-02T19:23:30;23.75;;;21.45;;
2157;SDS011;41972;48.774;9.282;2024-03-02T19:25:55;26.07;;;23.47;;
2157;SDS011;41972;48.774;9.282;2024-03-02T19:28:24;20.50;;;18.50;;
2157;SDS011;41972;48.774;9.282;2024-03-02T19:30:50;23.40;;;21.05;;
2157;SDS011;41972;48.774;9.282;2024-03-02T19:33:16;22.07;;;19.93;;
2157;SDS011;41972;48.774;9.282;2024-03-02T19:35:43;22.55;;;20.65;;
2157;SDS011;41972;48.774;9.282;2024-03-02T19:38:12;26.90;;;24.70;;
2157;SDS011;41972;48.774;9.282;2024-03-02T19:40:38;26.00;;;23.50;;
2157;SDS011;41972;48.774;9.282;2024-03-02T19:43:04;32.27;;;29.70;;
2157;SDS011;41972;48.774;9.282;2024-03-02T19:45:30;24.90;;;22.20;;
2157;SDS011;41972;48.774;9.282;2024-03-02T19:47:55;24.75;;;22.55;;
2157;SDS011;41972;48.774;9.282;2024-03-02T19:50:21;33.40;;;30.80;;
2157;SDS011;41972;48.774;9.282;2024-03-02T19:52:46;34.70;;;31.90;;
2157;SDS011;41972;48.774;9.282;2024-03-02T19:57:38;27.00;;;24.40;;
2157;SDS011;41972;48.774;9.282;2024-03-02T20:09:54;27.00;;;24.50;;
2157;SDS011;41972;48.774;9.282;2024-03-02T20:14:46;28.70;;;25.90;;
2157;SDS011;41972;48.774;9.282;2024-03-02T20:17:12;32.10;;;29.60;;
2157;SDS011;41972;48.774;9.282;2024-03-02T20:24:30;30.55;;;27.95;;
2157;SDS011;41972;48.774;9.282;2024-03-02T20:29:21;29.30;;;26.60;;
2157;SDS011;41972;48.774;9.282;2024-03-02T20:39:06;29.93;;;27.07;;
2157;SDS011;41972;48.774;9.282;2024-03-02T20:41:31;28.95;;;26.15;;
2157;SDS011;41972;48.774;9.282;2024-03-02T20:43:57;29.10;;;26.30;;
2157;SDS011;41972;48.774;9.282;2024-03-02T20:46:22;30.30;;;27.17;;
2157;SDS011;41972;48.774;9.282;2024-03-02T20:48:48;28.90;;;26.00;;
2157;SDS011;41972;48.774;9.282;2024-03-02T20:51:13;28.10;;;25.40;;
2157;SDS011;41972;48.774;9.282;2024-03-02T20:53:39;30.20;;;27.10;;
2157;SDS011;41972;48.774;9.282;2024-03-02T20:56:04;28.27;;;25.50;;
2157;SDS011;41972;48.774;9.282;2024-03-02T20:58:31;29.35;;;26.65;;
2157;SDS011;41972;48.774;9.282;2024-03-02T21:00:56;30.80;;;27.60;;
2157;SDS011;41972;48.774;9.282;2024-03-02T21:03:22;30.10;;;27.00;;
2157;SDS011;41972;48.774;9.282;2024-03-02T21:08:13;29.40;;;26.50;;
2157;SDS011;41972;48.774;9.282;2024-03-02T21:10:39;45.10;;;41.30;;
2157;SDS011;41972;48.774;9.282;2024-03-02T21:15:30;58.60;;;54.50;;
2157;SDS011;41972;48.774;9.282;2024-03-02T21:20:21;54.10;;;50.30;;
2157;SDS011;41972;48.774;9.282;2024-03-02T21:22:46;37.70;;;34.20;;
2157;SDS011;41972;48.774;9.282;2024-03-02T21:25:16;38.60;;;35.30;;
2157;SDS011;41972;48.774;9.282;2024-03-02T21:27:45;35.77;;;32.47;;
2157;SDS011;41972;48.774;9.282;2024-03-02T21:30:11;49.20;;;45.60;;
2157;SDS011;41972;48.774;9.282;2024-03-02T21:32:37;42.50;;;38.90;;
2157;SDS011;41972;48.774;9.282;2024-03-02T21:37:29;36.30;;;32.70;;
2157;SDS011;41972;48.774;9.282;2024-03-02T21:39:55;36.65;;;33.25;;
2157;SDS011;41972;48.774;9.282;2024-03-02T21:42:23;32.70;;;28.20;;
2157;SDS011;41972;48.774;9.282;2024-03-02T21:44:48;31.90;;;28.45;;
2157;SDS011;41972;48.774;9.282;2024-03-02T21:47:14;35.50;;;31.90;;
2157;SDS011;41972;48.774;9.282;2024-03-02T21:54:32;38.90;;;35.20;;
2157;SDS011;41972;48.774;9.282;2024-03-02T21:59:27;34.40;;;31.10;;
2157;SDS011;41972;48.774;9.282;2024-03-02T22:09:09;33.60;;;30.20;;
2157;SDS011;41972;48.774;9.282;2024-03-02T22:14:03;34.55;;;31.00;;
2157;SDS011;41972;48.774;9.282;2024-03-02T22:16:28;35.80;;;30.50;;
2157;SDS011;41972;48.774;9.282;2024-03-02T22:18:54;35.40;;;31.80;;
2157;SDS011;41972;48.774;9.282;2024-03-02T22:21:20;34.27;;;30.77;;
2157;SDS011;41972;48.774;9.282;2024-03-02T22:23:45;34.00;;;30.70;;
2157;SDS011;41972;48.774;9.282;2024-03-02T22:26:11;34.80;;;31.40;;
2157;SDS011;41972;48.774;9.282;2024-03-02T22:28:36;37.20;;;33.70;;
2157;SDS011;41972;48.774;9.282;2024-03-02T22:43:10;38.10;;;34.20;;
2157;SDS011;41972;48.774;9.282;2024-03-02T22:45:35;39.60;;;35.50;;
2157;SDS011;41972;48.774;9.282;2024-03-02T22:52:52;34.50;;;30.90;;
